createdAt,value
2023-02-19T00:00:11.081Z,1009.41
2023-02-19T00:00:30.482Z,1009.41
2023-02-19T00:01:05.505Z,1009.41
2023-02-19T00:01:37.910Z,1009.31
2023-02-19T00:02:09.515Z,1009.31
2023-02-19T00:02:40.103Z,1009.31
2023-02-19T00:03:14.298Z,1009.31
2023-02-19T00:03:45.713Z,1009.21
2023-02-19T00:04:08.326Z,1009.41
2023-02-19T00:04:30.722Z,1009.41
2023-02-19T00:05:06.015Z,1009.41
2023-02-19T00:05:37.941Z,1009.21
2023-02-19T00:06:09.562Z,1009.21
2023-02-19T00:06:40.344Z,1009.21
2023-02-19T00:07:13.478Z,1009.21
2023-02-19T00:07:48.587Z,1009.31
2023-02-19T00:08:09.904Z,1009.11
2023-02-19T00:08:33.329Z,1009.11
2023-02-19T00:09:06.006Z,1009.11
2023-02-19T00:09:38.054Z,1009.21
2023-02-19T00:10:11.351Z,1009.21
2023-02-19T00:10:40.301Z,1009.51
2023-02-19T00:11:13.957Z,1009.51
2023-02-19T00:11:49.160Z,1009.04
2023-02-19T00:12:08.286Z,1009.21
2023-02-19T00:12:34.179Z,1009.21
2023-02-19T00:13:05.818Z,1009.21
2023-02-19T00:13:38.779Z,1009.11
2023-02-19T00:14:15.455Z,1009.11
2023-02-19T00:14:40.082Z,1009.11
2023-02-19T00:15:13.993Z,1009.11
2023-02-19T00:15:46.054Z,1009.11
2023-02-19T00:16:08.724Z,1009.51
2023-02-19T00:16:30.912Z,1009.51
2023-02-19T00:17:07.632Z,1009.31
2023-02-19T00:17:37.680Z,1009.31
2023-02-19T00:18:09.966Z,1009.31
2023-02-19T00:18:39.964Z,1009.31
2023-02-19T00:19:13.779Z,1009.31
2023-02-19T00:19:46.537Z,1009.21
2023-02-19T00:20:09.444Z,1009.21
2023-02-19T00:20:31.899Z,1009.21
2023-02-19T00:21:05.445Z,1009.21
2023-02-19T00:21:37.952Z,1009.11
2023-02-19T00:22:09.425Z,1009.11
2023-02-19T00:22:41.108Z,1009.11
2023-02-19T00:23:13.856Z,1009.11
2023-02-19T00:23:46.821Z,1009.21
2023-02-19T00:24:09.726Z,1009.11
2023-02-19T00:24:32.032Z,1009.11
2023-02-19T00:25:07.581Z,1009.11
2023-02-19T00:25:37.653Z,1009.11
2023-02-19T00:26:18.322Z,1009.11
2023-02-19T00:26:43.481Z,1009.21
2023-02-19T00:27:14.137Z,1009.21
2023-02-19T00:27:45.683Z,1009.04
2023-02-19T00:28:08.265Z,1009.04
2023-02-19T00:28:31.659Z,1009.04
2023-02-19T00:29:07.199Z,1009.04
2023-02-19T00:29:38.390Z,1009.04
2023-02-19T00:30:09.938Z,1009.04
2023-02-19T00:30:40.192Z,1009.11
2023-02-19T00:31:14.099Z,1009.11
2023-02-19T00:31:46.291Z,1009.21
2023-02-19T00:32:08.664Z,1009.04
2023-02-19T00:32:30.903Z,1009.04
2023-02-19T00:33:06.526Z,1009.04
2023-02-19T00:33:39.781Z,1009.21
2023-02-19T00:34:10.074Z,1009.21
2023-02-19T00:34:39.816Z,1009.21
2023-02-19T00:35:14.609Z,1009.21
2023-02-19T00:35:45.393Z,1009.11
2023-02-19T00:36:08.163Z,1009.21
2023-02-19T00:36:30.783Z,1009.21
2023-02-19T00:37:06.562Z,1009.21
2023-02-19T00:37:38.376Z,1008.94
2023-02-19T00:38:09.891Z,1008.94
2023-02-19T00:38:40.286Z,1009.04
2023-02-19T00:39:13.734Z,1009.04
2023-02-19T00:39:46.483Z,1009.11
2023-02-19T00:40:09.096Z,1008.94
2023-02-19T00:40:31.547Z,1008.94
2023-02-19T00:41:06.543Z,1008.94
2023-02-19T00:41:38.558Z,1009.21
2023-02-19T00:42:10.302Z,1009.21
2023-02-19T00:42:41.686Z,1009.21
2023-02-19T00:43:14.718Z,1009.21
2023-02-19T00:43:46.280Z,1009.04
2023-02-19T00:44:08.946Z,1008.94
2023-02-19T00:44:32.004Z,1008.94
2023-02-19T00:45:06.195Z,1008.94
2023-02-19T00:45:37.566Z,1009.04
2023-02-19T00:46:09.696Z,1009.04
2023-02-19T00:46:40.167Z,1009.21
2023-02-19T00:47:13.870Z,1009.21
2023-02-19T00:47:46.057Z,1009.21
2023-02-19T00:48:08.673Z,1008.84
2023-02-19T00:48:33.936Z,1008.84
2023-02-19T00:49:06.621Z,1008.84
2023-02-19T00:49:37.524Z,1008.84
2023-02-19T00:50:10.755Z,1008.84
2023-02-19T00:50:41.547Z,1009.11
2023-02-19T00:51:14.305Z,1009.11
2023-02-19T00:51:48.212Z,1009.04
2023-02-19T00:52:10.346Z,1009.11
2023-02-19T00:52:33.181Z,1009.11
2023-02-19T00:53:06.091Z,1009.11
2023-02-19T00:53:38.493Z,1009.21
2023-02-19T00:54:09.733Z,1009.21
2023-02-19T00:54:41.076Z,1009.04
2023-02-19T00:55:13.596Z,1009.04
2023-02-19T00:55:46.179Z,1009.04
2023-02-19T00:56:08.972Z,1009.11
2023-02-19T00:56:33.791Z,1009.11
2023-02-19T00:57:06.950Z,1009.11
2023-02-19T00:57:37.507Z,1009.04
2023-02-19T00:58:10.622Z,1009.04
2023-02-19T00:58:39.878Z,1009.11
2023-02-19T00:59:13.595Z,1009.11
2023-02-19T00:59:45.972Z,1009.11
2023-02-19T01:00:09.341Z,1009.04
2023-02-19T01:00:33.971Z,1009.04
2023-02-19T01:01:06.770Z,1009.04
2023-02-19T01:01:38.049Z,1009.04
2023-02-19T01:02:11.932Z,1009.11
2023-02-19T01:02:41.741Z,1009.11
2023-02-19T01:03:13.788Z,1009.11
2023-02-19T01:03:46.836Z,1009.11
2023-02-19T01:04:09.501Z,1009.11
2023-02-19T01:04:31.938Z,1009.11
2023-02-19T01:05:06.619Z,1009.11
2023-02-19T01:05:37.404Z,1009.04
2023-02-19T01:06:11.010Z,1009.04
2023-02-19T01:06:42.624Z,1009.04
2023-02-19T01:07:14.785Z,1009.04
2023-02-19T01:07:46.014Z,1009.11
2023-02-19T01:08:08.650Z,1009.21
2023-02-19T01:08:31.757Z,1009.21
2023-02-19T01:09:06.047Z,1009.21
2023-02-19T01:09:39.644Z,1009.04
2023-02-19T01:10:09.587Z,1009.04
2023-02-19T01:10:42.847Z,1008.94
2023-02-19T01:11:13.597Z,1008.94
2023-02-19T01:11:46.314Z,1009.11
2023-02-19T01:12:08.858Z,1009.11
2023-02-19T01:12:33.765Z,1009.11
2023-02-19T01:13:06.445Z,1009.11
2023-02-19T01:13:38.642Z,1008.94
2023-02-19T01:14:10.285Z,1008.94
2023-02-19T01:14:40.001Z,1009.31
2023-02-19T01:15:14.189Z,1009.31
2023-02-19T01:15:45.724Z,1009.04
2023-02-19T01:16:08.300Z,1009.04
2023-02-19T01:16:31.481Z,1009.04
2023-02-19T01:17:05.665Z,1009.04
2023-02-19T01:17:37.629Z,1009.04
2023-02-19T01:18:09.677Z,1009.04
2023-02-19T01:18:40.527Z,1009.31
2023-02-19T01:19:14.265Z,1009.31
2023-02-19T01:19:46.492Z,1009.31
2023-02-19T01:20:09.208Z,1009.21
2023-02-19T01:20:31.628Z,1009.21
2023-02-19T01:21:05.426Z,1009.21
2023-02-19T01:21:38.003Z,1009.21
2023-02-19T01:22:09.884Z,1009.21
2023-02-19T01:22:40.309Z,1009.11
2023-02-19T01:23:13.856Z,1009.11
2023-02-19T01:23:46.607Z,1009.11
2023-02-19T01:24:09.217Z,1009.11
2023-02-19T01:24:31.907Z,1009.11
2023-02-19T01:25:05.417Z,1009.11
2023-02-19T01:25:38.352Z,1009.21
2023-02-19T01:26:09.349Z,1009.21
2023-02-19T01:26:40.987Z,1009.21
2023-02-19T01:27:13.997Z,1009.21
2023-02-19T01:27:51.289Z,1008.94
2023-02-19T01:28:08.632Z,1009.11
2023-02-19T01:28:31.864Z,1009.11
2023-02-19T01:29:06.054Z,1009.11
2023-02-19T01:29:38.657Z,1009.11
2023-02-19T01:30:09.709Z,1009.11
2023-02-19T01:30:40.118Z,1009.04
2023-02-19T01:31:13.988Z,1009.04
2023-02-19T01:31:45.614Z,1008.94
2023-02-19T01:32:08.513Z,1009.11
2023-02-19T01:32:31.684Z,1009.11
2023-02-19T01:33:05.603Z,1009.11
2023-02-19T01:33:39.311Z,1009.21
2023-02-19T01:34:09.741Z,1009.21
2023-02-19T01:34:40.418Z,1009.04
2023-02-19T01:35:13.437Z,1009.04
2023-02-19T01:35:45.506Z,1009.04
2023-02-19T01:36:08.288Z,1009.21
2023-02-19T01:36:30.493Z,1009.21
2023-02-19T01:37:06.080Z,1009.21
2023-02-19T01:37:40.134Z,1009.04
2023-02-19T01:38:10.264Z,1009.04
2023-02-19T01:38:40.192Z,1009.11
2023-02-19T01:39:13.640Z,1009.11
2023-02-19T01:39:46.337Z,1009.04
2023-02-19T01:40:09.082Z,1009.21
2023-02-19T01:40:31.754Z,1009.21
2023-02-19T01:41:06.268Z,1009.21
2023-02-19T01:41:40.559Z,1009.04
2023-02-19T01:42:09.693Z,1009.04
2023-02-19T01:42:40.636Z,1008.94
2023-02-19T01:43:13.456Z,1008.94
2023-02-19T01:43:45.923Z,1009.11
2023-02-19T01:44:08.608Z,1009.04
2023-02-19T01:44:31.003Z,1009.04
2023-02-19T01:45:06.648Z,1009.04
2023-02-19T01:45:37.645Z,1009.11
2023-02-19T01:46:09.901Z,1009.11
2023-02-19T01:46:41.363Z,1009.21
2023-02-19T01:47:13.497Z,1009.21
2023-02-19T01:47:45.508Z,1009.11
2023-02-19T01:48:08.201Z,1009.11
2023-02-19T01:48:31.412Z,1009.11
2023-02-19T01:49:05.542Z,1009.11
2023-02-19T01:49:37.879Z,1008.94
2023-02-19T01:50:09.549Z,1008.94
2023-02-19T01:50:41.894Z,1008.94
2023-02-19T01:51:13.492Z,1008.94
2023-02-19T01:51:45.964Z,1009.11
2023-02-19T01:52:08.423Z,1009.11
2023-02-19T01:52:31.578Z,1009.11
2023-02-19T01:53:06.207Z,1009.11
2023-02-19T01:53:38.477Z,1009.21
2023-02-19T01:54:09.651Z,1009.21
2023-02-19T01:54:42.599Z,1008.94
2023-02-19T01:55:13.541Z,1008.94
2023-02-19T01:55:45.721Z,1009.04
2023-02-19T01:56:08.280Z,1009.11
2023-02-19T01:56:31.129Z,1009.11
2023-02-19T01:57:05.851Z,1009.11
2023-02-19T01:57:37.937Z,1009.11
2023-02-19T01:58:10.273Z,1009.11
2023-02-19T01:58:40.302Z,1009.21
2023-02-19T01:59:13.312Z,1009.21
2023-02-19T01:59:45.896Z,1009.04
2023-02-19T02:00:08.917Z,1009.04
2023-02-19T02:00:33.630Z,1009.04
2023-02-19T02:01:06.116Z,1009.04
2023-02-19T02:01:37.876Z,1008.84
2023-02-19T02:02:09.828Z,1008.84
2023-02-19T02:02:40.296Z,1009.04
2023-02-19T02:03:14.587Z,1009.04
2023-02-19T02:03:45.930Z,1009.11
2023-02-19T02:04:12.840Z,1008.94
2023-02-19T02:04:49.694Z,1008.94
2023-02-19T02:05:12.004Z,1008.94
2023-02-19T02:05:34.393Z,1008.94
2023-02-19T02:06:09.372Z,1008.94
2023-02-19T02:06:40.075Z,1008.84
2023-02-19T02:07:13.666Z,1008.84
2023-02-19T02:07:45.538Z,1008.94
2023-02-19T02:08:10.196Z,1009.04
2023-02-19T02:08:32.614Z,1009.04
2023-02-19T02:09:05.439Z,1009.04
2023-02-19T02:09:37.333Z,1008.94
2023-02-19T02:10:09.635Z,1008.94
2023-02-19T02:10:39.941Z,1009.04
2023-02-19T02:11:13.450Z,1009.04
2023-02-19T02:11:45.828Z,1008.94
2023-02-19T02:12:08.667Z,1008.94
2023-02-19T02:12:31.084Z,1008.94
2023-02-19T02:13:05.342Z,1008.94
2023-02-19T02:13:37.543Z,1008.94
2023-02-19T02:14:09.645Z,1008.94
2023-02-19T02:14:39.986Z,1009.04
2023-02-19T02:15:13.457Z,1009.04
2023-02-19T02:15:46.560Z,1009.04
2023-02-19T02:16:09.309Z,1008.94
2023-02-19T02:16:31.548Z,1008.94
2023-02-19T02:17:05.481Z,1008.94
2023-02-19T02:17:37.729Z,1008.94
2023-02-19T02:18:09.525Z,1008.94
2023-02-19T02:18:39.903Z,1009.11
2023-02-19T02:19:13.686Z,1009.11
2023-02-19T02:19:46.894Z,1008.84
2023-02-19T02:20:08.221Z,1008.94
2023-02-19T02:20:30.884Z,1008.94
2023-02-19T02:21:05.328Z,1008.94
2023-02-19T02:21:37.384Z,1009.11
2023-02-19T02:22:09.411Z,1009.11
2023-02-19T02:22:40.192Z,1008.84
2023-02-19T02:23:13.513Z,1008.84
2023-02-19T02:23:47.580Z,1008.94
2023-02-19T02:24:08.827Z,1008.84
2023-02-19T02:24:31.311Z,1008.84
2023-02-19T02:25:05.416Z,1008.84
2023-02-19T02:25:37.496Z,1008.94
2023-02-19T02:26:09.413Z,1008.94
2023-02-19T02:26:40.044Z,1008.74
2023-02-19T02:27:13.493Z,1008.74
2023-02-19T02:27:47.746Z,1008.94
2023-02-19T02:28:08.111Z,1008.84
2023-02-19T02:28:30.499Z,1008.84
2023-02-19T02:29:05.357Z,1008.84
2023-02-19T02:29:37.383Z,1009.11
2023-02-19T02:30:09.994Z,1009.11
2023-02-19T02:30:39.878Z,1008.74
2023-02-19T02:31:13.834Z,1008.74
2023-02-19T02:31:45.529Z,1009.04
2023-02-19T02:32:08.398Z,1008.94
2023-02-19T02:32:30.521Z,1008.94
2023-02-19T02:33:05.720Z,1008.94
2023-02-19T02:33:37.283Z,1009.04
2023-02-19T02:34:09.455Z,1009.04
2023-02-19T02:34:39.954Z,1008.84
2023-02-19T02:35:13.683Z,1008.84
2023-02-19T02:35:45.578Z,1008.94
2023-02-19T02:36:08.332Z,1008.84
2023-02-19T02:36:30.645Z,1008.84
2023-02-19T02:37:05.490Z,1008.84
2023-02-19T02:37:37.445Z,1008.84
2023-02-19T02:38:09.553Z,1008.84
2023-02-19T02:38:40.044Z,1008.84
2023-02-19T02:39:13.466Z,1008.84
2023-02-19T02:39:45.381Z,1008.84
2023-02-19T02:40:08.843Z,1008.74
2023-02-19T02:40:31.212Z,1008.74
2023-02-19T02:41:05.541Z,1008.74
2023-02-19T02:41:37.326Z,1008.84
2023-02-19T02:42:09.420Z,1008.84
2023-02-19T02:42:40.113Z,1008.74
2023-02-19T02:43:13.517Z,1008.74
2023-02-19T02:43:45.316Z,1009.04
2023-02-19T02:44:08.194Z,1008.74
2023-02-19T02:44:30.775Z,1008.74
2023-02-19T02:45:05.626Z,1008.74
2023-02-19T02:45:37.756Z,1008.74
2023-02-19T02:46:09.323Z,1008.74
2023-02-19T02:46:39.977Z,1008.84
2023-02-19T02:47:13.645Z,1008.84
2023-02-19T02:47:45.689Z,1008.94
2023-02-19T02:48:09.644Z,1008.84
2023-02-19T02:48:32.325Z,1008.84
2023-02-19T02:49:05.367Z,1008.84
2023-02-19T02:49:37.744Z,1009.04
2023-02-19T02:50:10.845Z,1009.04
2023-02-19T02:50:40.041Z,1008.84
2023-02-19T02:51:13.488Z,1008.84
2023-02-19T02:51:45.391Z,1008.94
2023-02-19T02:52:09.607Z,1008.84
2023-02-19T02:52:32.050Z,1008.84
2023-02-19T02:53:05.770Z,1008.84
2023-02-19T02:53:37.520Z,1008.84
2023-02-19T02:54:09.493Z,1008.84
2023-02-19T02:54:41.550Z,1008.74
2023-02-19T02:55:13.465Z,1008.74
2023-02-19T02:55:45.340Z,1008.94
2023-02-19T02:56:08.705Z,1008.84
2023-02-19T02:56:31.273Z,1008.84
2023-02-19T02:57:05.568Z,1008.84
2023-02-19T02:57:42.957Z,1008.84
2023-02-19T02:58:09.717Z,1008.84
2023-02-19T02:58:39.965Z,1008.84
2023-02-19T02:59:13.713Z,1008.84
2023-02-19T02:59:45.351Z,1008.94
2023-02-19T03:00:09.092Z,1008.84
2023-02-19T03:00:31.176Z,1008.84
2023-02-19T03:01:05.492Z,1008.84
2023-02-19T03:01:37.455Z,1009.04
2023-02-19T03:02:09.452Z,1009.04
2023-02-19T03:02:42.911Z,1008.94
2023-02-19T03:03:07.280Z,1008.94
2023-02-19T03:04:08.900Z,1008.94
2023-02-19T03:04:33.980Z,1008.94
2023-02-19T03:05:05.520Z,1008.94
2023-02-19T03:05:40.401Z,1008.94
2023-02-19T03:06:10.277Z,1008.94
2023-02-19T03:06:40.709Z,1008.94
2023-02-19T03:07:13.906Z,1008.94
2023-02-19T03:07:48.439Z,1009.04
2023-02-19T03:08:11.169Z,1008.94
2023-02-19T03:08:49.371Z,1008.94
2023-02-19T03:09:12.230Z,1009.04
2023-02-19T03:09:37.255Z,1009.04
2023-02-19T03:10:10.387Z,1009.04
2023-02-19T03:10:40.191Z,1008.63
2023-02-19T03:11:14.944Z,1008.63
2023-02-19T03:11:47.154Z,1008.84
2023-02-19T03:12:09.683Z,1008.84
2023-02-19T03:12:36.134Z,1008.84
2023-02-19T03:13:05.634Z,1008.84
2023-02-19T03:13:41.137Z,1008.94
2023-02-19T03:14:03.527Z,1008.94
2023-02-19T03:14:40.242Z,1008.94
2023-02-19T03:15:13.975Z,1008.94
2023-02-19T03:15:45.855Z,1008.94
2023-02-19T03:16:08.575Z,1008.94
2023-02-19T03:16:31.087Z,1008.94
2023-02-19T03:17:06.390Z,1008.94
2023-02-19T03:17:37.483Z,1008.84
2023-02-19T03:18:11.540Z,1008.84
2023-02-19T03:18:40.041Z,1008.94
2023-02-19T03:19:13.564Z,1008.94
2023-02-19T03:19:47.273Z,1009.04
2023-02-19T03:20:08.170Z,1008.94
2023-02-19T03:20:30.728Z,1008.94
2023-02-19T03:21:05.365Z,1008.94
2023-02-19T03:21:37.452Z,1008.94
2023-02-19T03:22:09.334Z,1008.94
2023-02-19T03:22:40.380Z,1008.94
2023-02-19T03:23:13.465Z,1008.94
2023-02-19T03:23:45.302Z,1009.04
2023-02-19T03:24:07.972Z,1008.63
2023-02-19T03:24:30.393Z,1008.63
2023-02-19T03:25:05.379Z,1008.63
2023-02-19T03:25:37.830Z,1008.94
2023-02-19T03:26:09.353Z,1008.94
2023-02-19T03:26:40.059Z,1009.04
2023-02-19T03:27:13.600Z,1009.04
2023-02-19T03:27:45.375Z,1009.11
2023-02-19T03:28:08.510Z,1009.04
2023-02-19T03:28:30.821Z,1009.04
2023-02-19T03:29:05.373Z,1009.04
2023-02-19T03:29:37.453Z,1009.04
2023-02-19T03:30:09.762Z,1009.04
2023-02-19T03:30:39.990Z,1009.21
2023-02-19T03:31:13.737Z,1009.21
2023-02-19T03:31:45.582Z,1008.84
2023-02-19T03:32:08.711Z,1009.11
2023-02-19T03:32:30.906Z,1009.11
2023-02-19T03:33:05.427Z,1009.11
2023-02-19T03:33:37.443Z,1009.21
2023-02-19T03:34:09.305Z,1009.21
2023-02-19T03:34:40.058Z,1009.04
2023-02-19T03:35:13.459Z,1009.04
2023-02-19T03:35:45.354Z,1008.94
2023-02-19T03:36:07.902Z,1009.04
2023-02-19T03:36:30.516Z,1009.04
2023-02-19T03:37:05.540Z,1009.04
2023-02-19T03:37:37.477Z,1009.04
2023-02-19T03:38:09.475Z,1009.04
2023-02-19T03:38:40.059Z,1009.04
2023-02-19T03:39:13.491Z,1009.04
2023-02-19T03:39:45.403Z,1008.94
2023-02-19T03:40:08.706Z,1009.31
2023-02-19T03:40:30.947Z,1009.31
2023-02-19T03:41:05.484Z,1009.31
2023-02-19T03:41:37.390Z,1009.21
2023-02-19T03:42:09.693Z,1009.21
2023-02-19T03:42:43.513Z,1009.11
2023-02-19T03:43:13.444Z,1009.11
2023-02-19T03:43:45.378Z,1009.11
2023-02-19T03:44:08.046Z,1009.21
2023-02-19T03:44:30.488Z,1009.21
2023-02-19T03:45:05.584Z,1009.21
2023-02-19T03:45:37.364Z,1009.11
2023-02-19T03:46:09.558Z,1009.11
2023-02-19T03:46:40.112Z,1009.21
2023-02-19T03:47:13.397Z,1009.21
2023-02-19T03:47:45.375Z,1009.21
2023-02-19T03:48:08.572Z,1009.11
2023-02-19T03:48:30.902Z,1009.11
2023-02-19T03:49:05.574Z,1009.11
2023-02-19T03:49:37.399Z,1009.21
2023-02-19T03:50:09.428Z,1009.21
2023-02-19T03:50:40.544Z,1009.31
2023-02-19T03:51:13.513Z,1009.31
2023-02-19T03:51:45.701Z,1009.31
2023-02-19T03:52:09.027Z,1009.21
2023-02-19T03:52:31.419Z,1009.21
2023-02-19T03:53:05.462Z,1009.21
2023-02-19T03:53:37.420Z,1008.94
2023-02-19T03:54:09.359Z,1008.94
2023-02-19T03:54:40.145Z,1009.11
2023-02-19T03:55:13.411Z,1009.11
2023-02-19T03:55:45.501Z,1008.94
2023-02-19T03:56:08.493Z,1009.31
2023-02-19T03:56:31.005Z,1009.31
2023-02-19T03:57:05.522Z,1009.31
2023-02-19T03:57:37.479Z,1009.21
2023-02-19T03:58:09.553Z,1009.21
2023-02-19T03:58:40.061Z,1009.21
2023-02-19T03:59:13.328Z,1009.21
2023-02-19T03:59:45.401Z,1009.11
2023-02-19T04:00:08.930Z,1009.21
2023-02-19T04:00:32.575Z,1009.21
2023-02-19T04:01:05.637Z,1009.21
2023-02-19T04:01:37.503Z,1009.31
2023-02-19T04:02:09.509Z,1009.31
2023-02-19T04:02:40.028Z,1009.31
2023-02-19T04:03:13.396Z,1009.31
2023-02-19T04:03:45.992Z,1009.41
2023-02-19T04:04:09.501Z,1009.31
2023-02-19T04:04:31.497Z,1009.31
2023-02-19T04:05:07.890Z,1009.31
2023-02-19T04:05:37.448Z,1009.41
2023-02-19T04:06:09.860Z,1009.41
2023-02-19T04:06:41.447Z,1009.41
2023-02-19T04:07:14.980Z,1009.41
2023-02-19T04:07:45.562Z,1009.31
2023-02-19T04:08:08.184Z,1009.51
2023-02-19T04:08:30.839Z,1009.51
2023-02-19T04:09:05.405Z,1009.51
2023-02-19T04:09:37.382Z,1009.62
2023-02-19T04:10:09.782Z,1009.62
2023-02-19T04:10:40.138Z,1009.51
2023-02-19T04:11:13.456Z,1009.51
2023-02-19T04:11:45.576Z,1009.41
2023-02-19T04:12:09.280Z,1009.62
2023-02-19T04:12:31.570Z,1009.62
2023-02-19T04:13:05.672Z,1009.62
2023-02-19T04:13:37.336Z,1009.62
2023-02-19T04:14:09.466Z,1009.62
2023-02-19T04:14:39.969Z,1009.72
2023-02-19T04:15:13.676Z,1009.72
2023-02-19T04:15:45.473Z,1009.72
2023-02-19T04:16:09.143Z,1009.51
2023-02-19T04:16:31.495Z,1009.51
2023-02-19T04:17:05.685Z,1009.51
2023-02-19T04:17:37.264Z,1009.72
2023-02-19T04:18:09.382Z,1009.72
2023-02-19T04:18:39.935Z,1009.72
2023-02-19T04:19:13.982Z,1009.72
2023-02-19T04:19:45.223Z,1009.62
2023-02-19T04:20:09.379Z,1009.62
2023-02-19T04:20:31.838Z,1009.62
2023-02-19T04:21:05.227Z,1009.62
2023-02-19T04:21:37.267Z,1009.72
2023-02-19T04:22:09.314Z,1009.72
2023-02-19T04:22:40.208Z,1009.62
2023-02-19T04:23:13.966Z,1009.62
2023-02-19T04:23:45.676Z,1009.72
2023-02-19T04:24:08.354Z,1009.51
2023-02-19T04:24:30.680Z,1009.51
2023-02-19T04:25:05.362Z,1009.51
2023-02-19T04:25:37.368Z,1009.62
2023-02-19T04:26:09.317Z,1009.62
2023-02-19T04:26:40.102Z,1009.62
2023-02-19T04:27:13.361Z,1009.62
2023-02-19T04:27:45.325Z,1009.62
2023-02-19T04:28:08.043Z,1009.82
2023-02-19T04:28:30.543Z,1009.82
2023-02-19T04:29:05.361Z,1009.82
2023-02-19T04:29:39.155Z,1009.92
2023-02-19T04:30:09.526Z,1009.92
2023-02-19T04:30:40.308Z,1009.82
2023-02-19T04:31:13.703Z,1009.82
2023-02-19T04:31:45.277Z,1009.72
2023-02-19T04:32:08.006Z,1009.82
2023-02-19T04:32:30.498Z,1009.82
2023-02-19T04:33:05.907Z,1009.82
2023-02-19T04:33:37.414Z,1010.02
2023-02-19T04:34:09.319Z,1010.02
2023-02-19T04:34:39.898Z,1009.82
2023-02-19T04:35:13.338Z,1009.82
2023-02-19T04:35:45.425Z,1009.82
2023-02-19T04:36:08.428Z,1009.72
2023-02-19T04:36:30.921Z,1009.72
2023-02-19T04:37:08.993Z,1009.72
2023-02-19T04:37:37.466Z,1010.02
2023-02-19T04:38:09.467Z,1010.02
2023-02-19T04:38:40.079Z,1009.82
2023-02-19T04:39:13.441Z,1009.82
2023-02-19T04:39:45.701Z,1009.92
2023-02-19T04:40:08.909Z,1010.02
2023-02-19T04:40:30.821Z,1010.02
2023-02-19T04:41:08.229Z,1010.02
2023-02-19T04:41:37.501Z,1009.92
2023-02-19T04:42:09.587Z,1009.92
2023-02-19T04:42:40.264Z,1009.72
2023-02-19T04:43:13.360Z,1009.72
2023-02-19T04:43:45.338Z,1010.23
2023-02-19T04:44:09.628Z,1009.82
2023-02-19T04:44:32.031Z,1009.82
2023-02-19T04:45:07.747Z,1009.82
2023-02-19T04:45:37.298Z,1009.82
2023-02-19T04:46:09.455Z,1009.82
2023-02-19T04:46:42.887Z,1010.12
2023-02-19T04:47:13.366Z,1010.12
2023-02-19T04:47:45.376Z,1009.82
2023-02-19T04:48:08.256Z,1010.23
2023-02-19T04:48:30.517Z,1010.23
2023-02-19T04:49:05.391Z,1010.23
2023-02-19T04:49:37.259Z,1010.12
2023-02-19T04:50:09.298Z,1010.12
2023-02-19T04:50:40.169Z,1010.23
2023-02-19T04:51:13.514Z,1010.23
2023-02-19T04:51:45.636Z,1010.12
2023-02-19T04:52:09.051Z,1010.33
2023-02-19T04:52:31.078Z,1010.33
2023-02-19T04:53:05.402Z,1010.33
2023-02-19T04:53:37.409Z,1010.23
2023-02-19T04:54:09.253Z,1010.23
2023-02-19T04:54:43.558Z,1010.33
2023-02-19T04:55:13.553Z,1010.33
2023-02-19T04:55:45.356Z,1010.23
2023-02-19T04:56:09.262Z,1010.33
2023-02-19T04:56:30.424Z,1010.33
2023-02-19T04:57:05.520Z,1010.33
2023-02-19T04:57:37.607Z,1010.43
2023-02-19T04:58:09.507Z,1010.43
2023-02-19T04:58:40.089Z,1010.23
2023-02-19T04:59:13.511Z,1010.23
2023-02-19T04:59:46.772Z,1010.33
2023-02-19T05:00:12.179Z,1010.12
2023-02-19T05:00:49.820Z,1010.12
2023-02-19T05:01:13.096Z,1010.33
2023-02-19T05:01:35.325Z,1010.33
2023-02-19T05:02:11.964Z,1010.33
2023-02-19T05:02:40.308Z,1010.43
2023-02-19T05:03:13.865Z,1010.43
2023-02-19T05:03:46.880Z,1010.43
2023-02-19T05:04:11.616Z,1010.43
2023-02-19T05:04:30.697Z,1010.43
2023-02-19T05:05:10.994Z,1010.43
2023-02-19T05:05:37.910Z,1010.33
2023-02-19T05:06:13.205Z,1010.33
2023-02-19T05:06:40.588Z,1010.53
2023-02-19T05:07:13.619Z,1010.53
2023-02-19T05:07:45.494Z,1010.02
2023-02-19T05:08:12.730Z,1010.23
2023-02-19T05:08:32.063Z,1010.23
2023-02-19T05:09:05.575Z,1010.23
2023-02-19T05:09:37.898Z,1010.43
2023-02-19T05:10:09.577Z,1010.43
2023-02-19T05:10:42.008Z,1010.33
2023-02-19T05:11:13.653Z,1010.33
2023-02-19T05:11:45.359Z,1010.53
2023-02-19T05:12:08.540Z,1010.33
2023-02-19T05:12:31.664Z,1010.33
2023-02-19T05:13:05.804Z,1010.33
2023-02-19T05:13:37.636Z,1010.53
2023-02-19T05:14:09.312Z,1010.53
2023-02-19T05:14:39.976Z,1010.53
2023-02-19T05:15:13.422Z,1010.53
2023-02-19T05:15:45.280Z,1010.43
2023-02-19T05:16:09.449Z,1010.53
2023-02-19T05:16:31.820Z,1010.53
2023-02-19T05:17:05.208Z,1010.53
2023-02-19T05:17:37.688Z,1010.53
2023-02-19T05:18:09.300Z,1010.53
2023-02-19T05:18:39.989Z,1010.63
2023-02-19T05:19:14.173Z,1010.63
2023-02-19T05:19:45.378Z,1010.43
2023-02-19T05:20:10.522Z,1010.43
2023-02-19T05:20:32.681Z,1010.43
2023-02-19T05:21:05.318Z,1010.43
2023-02-19T05:21:37.587Z,1010.53
2023-02-19T05:22:09.405Z,1010.53
2023-02-19T05:22:39.990Z,1010.33
2023-02-19T05:23:14.948Z,1010.33
2023-02-19T05:23:45.176Z,1010.53
2023-02-19T05:24:08.483Z,1010.63
2023-02-19T05:24:30.916Z,1010.63
2023-02-19T05:25:05.269Z,1010.63
2023-02-19T05:25:37.318Z,1010.53
2023-02-19T05:26:09.334Z,1010.53
2023-02-19T05:26:40.013Z,1010.63
2023-02-19T05:27:15.413Z,1010.63
2023-02-19T05:27:45.309Z,1010.53
2023-02-19T05:28:08.816Z,1010.43
2023-02-19T05:28:31.214Z,1010.43
2023-02-19T05:29:05.358Z,1010.43
2023-02-19T05:29:37.405Z,1010.63
2023-02-19T05:30:09.871Z,1010.63
2023-02-19T05:30:36.451Z,1010.73
2023-02-19T05:31:16.088Z,1010.73
2023-02-19T05:31:45.546Z,1010.43
2023-02-19T05:32:08.137Z,1010.63
2023-02-19T05:32:31.945Z,1010.63
2023-02-19T05:33:05.471Z,1010.63
2023-02-19T05:33:37.638Z,1010.63
2023-02-19T05:34:09.288Z,1010.63
2023-02-19T05:34:40.059Z,1010.84
2023-02-19T05:35:16.835Z,1010.84
2023-02-19T05:35:49.113Z,1010.63
2023-02-19T05:36:11.621Z,1010.94
2023-02-19T05:36:49.138Z,1010.94
2023-02-19T05:37:11.851Z,1010.63
2023-02-19T05:37:35.665Z,1010.63
2023-02-19T05:38:10.111Z,1010.63
2023-02-19T05:38:41.603Z,1010.63
2023-02-19T05:39:14.312Z,1010.63
2023-02-19T05:39:45.242Z,1010.53
2023-02-19T05:40:09.478Z,1010.73
2023-02-19T05:40:34.324Z,1010.73
2023-02-19T05:41:05.339Z,1010.73
2023-02-19T05:41:37.512Z,1010.73
2023-02-19T05:42:09.370Z,1010.73
2023-02-19T05:42:40.289Z,1010.63
2023-02-19T05:43:13.299Z,1010.63
2023-02-19T05:43:46.008Z,1010.73
2023-02-19T05:44:09.230Z,1010.94
2023-02-19T05:44:31.372Z,1010.94
2023-02-19T05:45:05.724Z,1010.94
2023-02-19T05:45:37.122Z,1010.84
2023-02-19T05:46:09.553Z,1010.84
2023-02-19T05:46:40.140Z,1010.63
2023-02-19T05:47:13.500Z,1010.63
2023-02-19T05:47:45.859Z,1010.94
2023-02-19T05:48:08.755Z,1010.73
2023-02-19T05:48:31.871Z,1010.73
2023-02-19T05:49:05.407Z,1010.73
2023-02-19T05:49:37.739Z,1010.73
2023-02-19T05:50:09.181Z,1010.73
2023-02-19T05:50:40.124Z,1010.94
2023-02-19T05:51:13.768Z,1010.94
2023-02-19T05:51:45.557Z,1010.84
2023-02-19T05:52:08.284Z,1011.04
2023-02-19T05:52:30.651Z,1011.04
2023-02-19T05:53:05.986Z,1011.04
2023-02-19T05:53:37.277Z,1010.84
2023-02-19T05:54:09.493Z,1010.84
2023-02-19T05:54:39.919Z,1010.94
2023-02-19T05:55:14.421Z,1010.94
2023-02-19T05:55:46.036Z,1010.84
2023-02-19T05:56:08.821Z,1010.84
2023-02-19T05:56:31.351Z,1010.84
2023-02-19T05:57:05.587Z,1010.84
2023-02-19T05:57:43.823Z,1010.94
2023-02-19T05:58:09.756Z,1010.94
2023-02-19T05:58:40.272Z,1010.94
2023-02-19T05:59:13.258Z,1010.94
2023-02-19T05:59:45.704Z,1010.84
2023-02-19T06:00:08.387Z,1011.14
2023-02-19T06:00:31.131Z,1011.14
2023-02-19T06:01:05.877Z,1011.14
2023-02-19T06:01:37.781Z,1011.04
2023-02-19T06:02:10.132Z,1011.04
2023-02-19T06:02:43.544Z,1011.04
2023-02-19T06:03:21.621Z,1011.04